Terminal Aerodrome Forecast
Issued by NWS

Home | Current Version | Previous Version | Text Only | Print | Product List | Glossary On
Versions: 1 2 3 4 5 6 7 8 9 10 11 12 13 14 15 16 17 18 19
000
FTUS43 KICT 210522
TAFRSL
TAF
KRSL 210522Z 2106/2206 01007KT P6SM BKN013
     FM210800 01005KT 4SM BR BKN008
     FM211000 VRB03KT 2SM BR BKN005
     FM211100 VRB03KT 1/2SM FG OVC004
     FM211400 16005KT 3SM BR BKN010
     FM211500 17006KT P6SM FEW020
     FM211700 18011KT P6SM SKC=

USA.gov is the U.S. government's official web portal to all federal, state and local government web resources and services.